createdAt,value
2019-01-24T00:02:24.586Z,37.40
2019-01-24T00:07:26.367Z,37.27
2019-01-24T00:12:28.183Z,38.90
2019-01-24T00:17:29.983Z,44.87
2019-01-24T00:22:35.782Z,40.73
2019-01-24T00:27:49.950Z,37.83
2019-01-24T00:32:52.567Z,37.80
2019-01-24T00:37:54.379Z,39.70
2019-01-24T00:42:56.153Z,41.77
2019-01-24T00:47:58.028Z,41.97
2019-01-24T00:53:00.557Z,45.03
2019-01-24T00:58:02.347Z,41.83
2019-01-24T01:03:04.420Z,37.47
2019-01-24T01:08:06.265Z,46.87
2019-01-24T01:13:08.352Z,44.90
2019-01-24T01:18:10.130Z,45.40
2019-01-24T01:23:12.006Z,38.70
2019-01-24T01:28:13.781Z,41.30
2019-01-24T01:33:17.330Z,47.00
2019-01-24T01:38:19.176Z,44.70
2019-01-24T01:43:20.963Z,37.03
2019-01-24T01:48:23.457Z,37.10
2019-01-24T01:53:25.348Z,38.97
2019-01-24T01:58:27.154Z,34.80
2019-01-24T02:03:28.948Z,35.33
2019-01-24T02:08:30.735Z,35.47
2019-01-24T02:13:32.950Z,41.97
2019-01-24T02:18:34.749Z,41.70
2019-01-24T02:23:36.611Z,26.67
2019-01-24T02:28:38.916Z,41.37
2019-01-24T02:33:41.989Z,37.93
2019-01-24T02:38:43.789Z,40.93
2019-01-24T02:43:45.586Z,39.10
2019-01-24T02:48:47.378Z,32.97
2019-01-24T02:53:49.940Z,39.80
2019-01-24T02:58:51.728Z,44.33
2019-01-24T03:03:53.618Z,17.33
2019-01-24T03:08:55.634Z,32.60
2019-01-24T03:13:57.816Z,39.10
2019-01-24T03:18:59.603Z,36.17
2019-01-24T03:24:01.395Z,38.23
2019-01-24T03:29:03.661Z,23.43
2019-01-24T03:34:05.877Z,42.40
2019-01-24T03:39:07.672Z,31.17
2019-01-24T03:44:09.976Z,35.90
2019-01-24T03:49:11.770Z,36.80
2019-01-24T03:54:13.567Z,36.53
2019-01-24T03:59:15.579Z,42.20
2019-01-24T04:04:17.375Z,42.87
2019-01-24T04:09:19.203Z,29.53
2019-01-24T04:14:20.980Z,47.93
2019-01-24T04:19:22.782Z,38.00
2019-01-24T04:24:24.587Z,27.83
2019-01-24T04:29:26.374Z,36.60
2019-01-24T04:34:28.514Z,31.37
2019-01-24T04:39:30.360Z,54.50
2019-01-24T04:44:32.225Z,21.53
2019-01-24T04:49:34.049Z,35.03
2019-01-24T04:54:35.816Z,35.93
2019-01-24T04:59:37.649Z,40.17
2019-01-24T05:04:39.446Z,40.43
2019-01-24T05:09:41.251Z,46.20
2019-01-24T05:14:43.041Z,31.07
2019-01-24T05:19:44.832Z,30.43
2019-01-24T05:24:46.729Z,33.00
2019-01-24T05:29:48.973Z,25.60
2019-01-24T05:34:51.074Z,26.30
2019-01-24T05:39:52.860Z,31.10
2019-01-24T05:44:54.665Z,23.73
2019-01-24T05:49:57.300Z,39.00
2019-01-24T05:54:59.078Z,40.37
2019-01-24T06:00:00.997Z,47.40
2019-01-24T06:05:05.670Z,41.90
2019-01-24T06:10:11.060Z,29.17
2019-01-24T06:15:16.126Z,31.57
2019-01-24T06:20:18.195Z,34.93
2019-01-24T06:25:20.019Z,35.20
2019-01-24T06:30:22.218Z,40.07
2019-01-24T06:35:25.556Z,35.10
2019-01-24T06:40:27.351Z,39.30
2019-01-24T06:45:29.172Z,31.57
2019-01-24T06:50:31.355Z,38.87
2019-01-24T06:55:33.110Z,38.13
2019-01-24T07:00:34.945Z,43.73
2019-01-24T07:05:36.705Z,25.43
2019-01-24T07:10:38.449Z,37.53
2019-01-24T07:15:40.224Z,24.07
2019-01-24T07:20:42.327Z,19.43
2019-01-24T07:25:44.127Z,41.10
2019-01-24T07:30:45.820Z,42.83
2019-01-24T07:35:51.924Z,41.20
2019-01-24T07:40:56.850Z,48.23
2019-01-24T07:46:00.817Z,28.33
2019-01-24T07:51:03.552Z,28.40
2019-01-24T07:56:05.248Z,34.80
2019-01-24T08:01:07.051Z,44.80
2019-01-24T08:06:09.313Z,37.63
2019-01-24T08:11:11.878Z,44.00
2019-01-24T08:16:13.880Z,30.97
2019-01-24T08:21:16.221Z,29.87
2019-01-24T08:26:17.990Z,35.70
2019-01-24T08:31:19.767Z,37.30
2019-01-24T08:36:24.326Z,51.83
2019-01-24T08:41:26.216Z,28.83
2019-01-24T08:46:28.094Z,37.00
2019-01-24T08:51:29.914Z,26.50
2019-01-24T08:56:31.789Z,41.80
2019-01-24T09:01:33.856Z,33.17
2019-01-24T09:06:35.985Z,34.30
2019-01-24T09:11:38.446Z,27.80
2019-01-24T09:16:40.290Z,33.47
2019-01-24T09:21:44.702Z,36.67
2019-01-24T09:26:46.546Z,34.20
2019-01-24T09:31:48.346Z,26.87
2019-01-24T09:36:50.615Z,33.90
2019-01-24T09:41:52.403Z,28.67
2019-01-24T09:46:54.175Z,34.90
2019-01-24T09:51:55.984Z,31.00
2019-01-24T09:56:57.840Z,34.23
2019-01-24T10:01:59.981Z,26.20
2019-01-24T10:07:02.107Z,22.47
2019-01-24T10:12:04.216Z,33.20
2019-01-24T10:17:06.199Z,32.03
2019-01-24T10:22:07.988Z,43.10
2019-01-24T10:27:10.056Z,19.43
2019-01-24T10:32:12.349Z,30.03
2019-01-24T10:37:17.197Z,29.57
2019-01-24T10:42:19.421Z,29.93
2019-01-24T10:47:21.200Z,15.83
2019-01-24T10:52:23.098Z,24.13
2019-01-24T10:57:24.994Z,16.83
2019-01-24T11:02:27.181Z,23.90
2019-01-24T11:07:29.316Z,25.67
2019-01-24T11:12:31.159Z,33.90
2019-01-24T11:17:47.143Z,23.33
2019-01-24T11:22:49.599Z,19.40
2019-01-24T11:27:51.306Z,21.80
2019-01-24T11:32:53.652Z,22.10
2019-01-24T11:37:56.046Z,29.50
2019-01-24T11:42:59.564Z,14.77
2019-01-24T11:48:12.010Z,21.50
2019-01-24T11:53:14.573Z,25.43
2019-01-24T11:58:16.906Z,21.63
2019-01-24T12:03:25.941Z,26.90
2019-01-24T12:08:28.227Z,22.87
2019-01-24T12:13:30.016Z,26.30
2019-01-24T12:18:31.889Z,17.07
2019-01-24T12:23:33.726Z,24.80
2019-01-24T12:28:35.974Z,26.07
2019-01-24T12:33:37.768Z,23.80
2019-01-24T12:38:39.610Z,25.60
2019-01-24T12:43:41.378Z,27.47
2019-01-24T12:48:43.185Z,25.10
2019-01-24T12:53:44.980Z,26.47
2019-01-24T12:58:47.053Z,27.80
2019-01-24T13:03:48.850Z,27.23
2019-01-24T13:08:50.715Z,18.87
2019-01-24T13:13:52.515Z,27.97
2019-01-24T13:18:54.254Z,29.20
2019-01-24T13:23:55.998Z,28.40
2019-01-24T13:28:58.365Z,23.87
2019-01-24T13:34:00.155Z,27.80
2019-01-24T13:39:06.249Z,29.20
2019-01-24T13:44:08.048Z,27.27
2019-01-24T13:49:09.836Z,32.03
2019-01-24T13:54:11.803Z,32.33
2019-01-24T13:59:14.079Z,24.77
2019-01-24T14:04:15.981Z,30.80
2019-01-24T14:09:17.782Z,29.30
2019-01-24T14:14:19.577Z,34.53
2019-01-24T14:19:21.346Z,22.07
2019-01-24T14:24:23.181Z,30.23
2019-01-24T14:29:25.328Z,26.17
2019-01-24T14:34:27.082Z,27.50
2019-01-24T14:39:28.911Z,32.37
2019-01-24T14:44:30.708Z,32.03
2019-01-24T14:49:32.480Z,29.20
2019-01-24T14:54:34.242Z,29.40
2019-01-24T14:59:36.378Z,31.77
2019-01-24T15:04:38.160Z,30.97
2019-01-24T15:09:40.246Z,22.30
2019-01-24T15:14:42.066Z,19.93
2019-01-24T15:19:44.071Z,25.43
2019-01-24T15:24:45.846Z,30.47
2019-01-24T15:29:48.058Z,22.40
2019-01-24T15:34:49.854Z,26.30
2019-01-24T15:39:51.700Z,29.33
2019-01-24T15:44:53.472Z,23.77
2019-01-24T15:49:55.531Z,26.97
2019-01-24T15:54:57.438Z,29.03
2019-01-24T15:59:59.835Z,27.73
2019-01-24T16:05:01.691Z,24.50
2019-01-24T16:10:14.995Z,23.03
2019-01-24T16:15:29.163Z,27.77
2019-01-24T16:20:30.978Z,26.50
2019-01-24T16:25:33.442Z,26.37
2019-01-24T16:30:36.032Z,21.60
2019-01-24T16:35:37.759Z,27.30
2019-01-24T16:40:39.675Z,24.47
2019-01-24T16:45:42.806Z,25.00
2019-01-24T16:50:44.899Z,21.80
2019-01-24T16:55:46.739Z,31.47
2019-01-24T17:00:49.358Z,28.47
2019-01-24T17:05:51.290Z,27.17
2019-01-24T17:10:53.164Z,24.83
2019-01-24T17:15:54.935Z,16.60
2019-01-24T17:20:56.713Z,26.43
2019-01-24T17:25:58.560Z,24.97
2019-01-24T17:31:00.419Z,27.10
2019-01-24T17:36:02.113Z,26.60
2019-01-24T17:41:05.089Z,29.13
2019-01-24T17:46:06.771Z,28.27
2019-01-24T17:51:08.651Z,28.20
2019-01-24T17:56:10.605Z,29.60
2019-01-24T18:01:14.476Z,21.67
2019-01-24T18:06:16.666Z,30.13
2019-01-24T18:11:18.718Z,29.03
2019-01-24T18:16:23.210Z,34.60
2019-01-24T18:21:25.296Z,34.70
2019-01-24T18:26:27.074Z,28.53
2019-01-24T18:31:30.637Z,28.47
2019-01-24T18:36:33.295Z,43.53
2019-01-24T18:41:35.987Z,45.10
2019-01-24T18:46:41.355Z,28.40
2019-01-24T18:51:43.163Z,31.90
2019-01-24T18:56:44.928Z,38.87
2019-01-24T19:01:46.765Z,38.37
2019-01-24T19:06:48.569Z,44.13
2019-01-24T19:11:50.357Z,26.17
2019-01-24T19:16:52.249Z,31.43
2019-01-24T19:21:54.477Z,48.57
2019-01-24T19:26:56.274Z,37.40
2019-01-24T19:31:58.090Z,44.93
2019-01-24T19:37:00.200Z,43.83
2019-01-24T19:42:03.533Z,47.10
2019-01-24T19:47:06.738Z,42.40
2019-01-24T19:52:08.515Z,38.47
2019-01-24T19:57:10.688Z,45.20
2019-01-24T20:02:12.713Z,50.47
2019-01-24T20:07:16.377Z,34.57
2019-01-24T20:12:18.639Z,33.53
2019-01-24T20:17:20.399Z,30.97
2019-01-24T20:22:22.221Z,49.87
2019-01-24T20:27:26.224Z,43.73
2019-01-24T20:32:28.057Z,39.87
2019-01-24T20:37:29.854Z,32.30
2019-01-24T20:42:31.749Z,41.53
2019-01-24T20:47:33.910Z,40.90
2019-01-24T20:52:36.208Z,30.20
2019-01-24T20:57:41.598Z,30.73
2019-01-24T21:02:43.547Z,43.53
2019-01-24T21:07:45.991Z,46.03
2019-01-24T21:12:47.817Z,50.63
2019-01-24T21:17:49.665Z,50.87
2019-01-24T21:22:51.790Z,50.50
2019-01-24T21:27:53.582Z,50.10
2019-01-24T21:32:56.216Z,39.20
2019-01-24T21:37:57.970Z,48.67
2019-01-24T21:43:00.950Z,51.07
2019-01-24T21:48:03.790Z,46.70
2019-01-24T21:53:05.902Z,46.80
2019-01-24T21:58:08.333Z,51.53
2019-01-24T22:03:10.090Z,47.63
2019-01-24T22:08:11.858Z,46.47
2019-01-24T22:13:13.981Z,49.70
2019-01-24T22:18:15.868Z,51.90
2019-01-24T22:23:17.756Z,57.37
2019-01-24T22:28:19.937Z,49.77
2019-01-24T22:33:21.709Z,53.77
2019-01-24T22:38:23.903Z,54.57
2019-01-24T22:43:25.793Z,43.57
2019-01-24T22:48:27.577Z,49.07
2019-01-24T22:53:29.352Z,41.17
2019-01-24T22:58:31.108Z,52.00
2019-01-24T23:03:36.527Z,50.60
2019-01-24T23:08:38.294Z,52.40
2019-01-24T23:13:40.099Z,57.47
2019-01-24T23:18:41.875Z,53.07
2019-01-24T23:23:43.662Z,54.17
2019-01-24T23:28:45.546Z,54.50
2019-01-24T23:33:47.684Z,49.87
2019-01-24T23:38:49.892Z,40.10
2019-01-24T23:43:54.732Z,43.50
2019-01-24T23:48:56.529Z,40.03
2019-01-24T23:53:58.335Z,33.60
2019-01-24T23:59:00.131Z,32.80
